createdAt,value
2018-09-23T09:34:34.439Z,17248.00
2018-09-23T09:35:34.407Z,19776.00
2018-09-23T09:36:34.388Z,18080.00
2018-09-23T09:37:34.370Z,15528.00
2018-09-23T09:38:34.480Z,14324.00
2018-09-23T09:39:34.332Z,11288.00
2018-09-23T09:40:34.311Z,9656.00
2018-09-23T09:41:34.292Z,9148.00
2018-09-23T09:42:34.275Z,8760.00
2018-09-23T09:43:34.259Z,8436.00
2018-09-23T09:44:34.251Z,9580.00
2018-09-23T09:45:34.222Z,11652.00
2018-09-23T09:46:34.205Z,11080.00
2018-09-23T09:47:34.186Z,9736.00
2018-09-23T09:48:34.168Z,8328.00
2018-09-23T09:49:34.151Z,7132.00
2018-09-23T09:50:34.149Z,6360.00
2018-09-23T09:51:34.118Z,6388.00
2018-09-23T09:52:34.104Z,7056.00
2018-09-23T09:53:34.142Z,7340.00
2018-09-23T09:54:34.070Z,7560.00
2018-09-23T09:55:34.057Z,7720.00
2018-09-23T09:56:34.031Z,7196.00
2018-09-23T09:57:34.026Z,7012.00
2018-09-23T09:58:34.031Z,8504.00
2018-09-23T09:59:34.057Z,9644.00
2018-09-23T10:00:34.037Z,9528.00
2018-09-23T10:01:34.007Z,11688.00
2018-09-23T10:02:33.993Z,12096.00
2018-09-23T10:03:33.914Z,12176.00
2018-09-23T10:04:33.909Z,13284.00
2018-09-23T10:05:33.887Z,12616.00
2018-09-23T10:06:33.867Z,14332.00
2018-09-23T10:07:33.846Z,14312.00
2018-09-23T10:08:33.831Z,14144.00
2018-09-23T10:09:33.846Z,13020.00
2018-09-23T10:10:33.805Z,12656.00
2018-09-23T10:11:33.838Z,12440.00
2018-09-23T10:12:33.771Z,12456.00
2018-09-23T10:13:33.750Z,12576.00
2018-09-23T10:14:33.734Z,12308.00
2018-09-23T10:15:33.727Z,12136.00
2018-09-23T10:16:33.701Z,12248.00
2018-09-23T10:17:33.685Z,12600.00
2018-09-23T10:18:33.670Z,11476.00
2018-09-23T10:19:33.655Z,9992.00
2018-09-23T10:20:33.646Z,8844.00
2018-09-23T10:21:33.621Z,8204.00
2018-09-23T10:22:33.658Z,8280.00
2018-09-23T10:23:33.695Z,7380.00
2018-09-23T10:24:33.574Z,7064.00
2018-09-23T10:25:33.578Z,7028.00
2018-09-23T10:26:33.545Z,6948.00
2018-09-23T10:27:33.528Z,6840.00
2018-09-23T10:28:33.512Z,7848.00
2018-09-23T10:29:33.493Z,9720.00
2018-09-23T10:30:33.477Z,9104.00
2018-09-23T10:31:33.499Z,8480.00
2018-09-23T10:32:33.445Z,9132.00
2018-09-23T10:33:33.434Z,10096.00
2018-09-23T10:34:33.413Z,10528.00
2018-09-23T10:35:33.396Z,11776.00
2018-09-23T10:36:33.390Z,14112.00
2018-09-23T10:37:33.365Z,16740.00
2018-09-23T10:38:33.347Z,17664.00
2018-09-23T10:39:33.356Z,17664.00
2018-09-23T10:40:33.316Z,17920.00
2018-09-23T10:41:33.310Z,19232.00
2018-09-23T10:42:33.289Z,16716.00
2018-09-23T10:43:33.285Z,15112.00
2018-09-23T10:44:33.292Z,14948.00
2018-09-23T10:45:33.297Z,16388.00
2018-09-23T10:46:33.312Z,17024.00
2018-09-23T10:47:33.267Z,14524.00
2018-09-23T10:48:33.270Z,12528.00
2018-09-23T10:49:33.175Z,13340.00
2018-09-23T10:50:33.165Z,13936.00
2018-09-23T10:51:33.144Z,15020.00
2018-09-23T10:52:33.136Z,13336.00
2018-09-23T10:53:33.193Z,11648.00
2018-09-23T10:54:33.101Z,10464.00
2018-09-23T10:55:33.102Z,9648.00
2018-09-23T10:56:33.069Z,9728.00
2018-09-23T10:57:33.062Z,9148.00
2018-09-23T10:58:33.039Z,7920.00
2018-09-23T10:59:33.107Z,8316.00
2018-09-23T11:00:33.004Z,8272.00
2018-09-23T11:01:32.990Z,6696.00
2018-09-23T11:02:32.984Z,4304.00
2018-09-23T11:03:32.957Z,3336.00
2018-09-23T11:04:32.945Z,2960.00
2018-09-23T11:05:32.930Z,2820.00
2018-09-23T11:06:32.913Z,2856.00
2018-09-23T11:07:32.984Z,2948.00
2018-09-23T11:08:32.883Z,3160.00
2018-09-23T11:09:32.866Z,3516.00
2018-09-23T11:10:32.852Z,3456.00
2018-09-23T11:11:32.836Z,3252.00
2018-09-23T11:12:32.817Z,3644.00
2018-09-23T11:13:32.811Z,3772.00
2018-09-23T11:14:32.788Z,3412.00
2018-09-23T11:15:32.771Z,3356.00
2018-09-23T11:16:32.759Z,3592.00
2018-09-23T11:17:32.736Z,3896.00
2018-09-23T11:18:32.739Z,4172.00
2018-09-23T11:19:32.709Z,3792.00
2018-09-23T11:20:32.691Z,3020.00
2018-09-23T11:21:32.676Z,2564.00
2018-09-23T11:22:32.659Z,2344.00
2018-09-23T11:23:32.653Z,2244.00
2018-09-23T11:24:32.637Z,1980.00
2018-09-23T11:25:32.613Z,1748.00
2018-09-23T11:26:32.595Z,1832.00
2018-09-23T11:27:32.575Z,1976.00
2018-09-23T11:28:32.561Z,2192.00
2018-09-23T11:29:32.562Z,2264.00
2018-09-23T11:30:32.593Z,2268.00
2018-09-23T11:31:32.554Z,2220.00
2018-09-23T11:32:32.563Z,2020.00
2018-09-23T11:33:32.538Z,1924.00
2018-09-23T11:34:32.564Z,2032.00
2018-09-23T11:35:32.518Z,2608.00
2018-09-23T11:36:32.426Z,3212.00
2018-09-23T11:37:32.412Z,3576.00
2018-09-23T11:38:32.403Z,4608.00
2018-09-23T11:39:32.378Z,7068.00
2018-09-23T11:40:32.376Z,8048.00
2018-09-23T11:41:32.346Z,6704.00
2018-09-23T11:42:32.327Z,6000.00
2018-09-23T11:43:32.309Z,7684.00
2018-09-23T11:44:32.293Z,8380.00
2018-09-23T11:45:32.285Z,8536.00
2018-09-23T11:46:32.263Z,8816.00
2018-09-23T11:47:32.246Z,7692.00
2018-09-23T11:48:32.227Z,7196.00
2018-09-23T11:49:32.254Z,7448.00
2018-09-23T11:50:32.209Z,8328.00
2018-09-23T11:51:32.176Z,8916.00
2018-09-23T11:52:32.160Z,9016.00
2018-09-23T11:53:32.142Z,7592.00
2018-09-23T11:54:32.127Z,6024.00
2018-09-23T11:55:32.114Z,5740.00
2018-09-23T11:56:32.100Z,5872.00
2018-09-23T11:57:32.074Z,4728.00
2018-09-23T11:58:32.058Z,3764.00
2018-09-23T11:59:32.045Z,3404.00
2018-09-23T12:00:32.024Z,3212.00
2018-09-23T12:01:32.018Z,3272.00
2018-09-23T12:02:31.997Z,3348.00
2018-09-23T12:03:31.973Z,3156.00
2018-09-23T12:04:31.970Z,3056.00
2018-09-23T12:05:31.947Z,3044.00
2018-09-23T12:06:31.940Z,3064.00
2018-09-23T12:07:31.901Z,2880.00
2018-09-23T12:08:31.897Z,2528.00
